Time;durP1;ratioP1;P1;durP2;ratioP2;P2;SDS_P1;SDS_P2;PMS_P1;PMS_P2;Temp;Humidity;BMP_temperature;BMP_pressure;BME280_temperature;BME280_humidity;BME280_pressure;Samples;Min_cycle;Max_cycle;Signal;HPM_P1;HPM_P2
2023/06/21 00:00:15;;;;;;;12.10;10.90;;;24.10;46.40;;;;;;4965135;28;114353;-79
2023/06/21 00:02:47;;;;;;;13.07;11.88;;;24.10;46.90;;;;;;4963376;28;115377;-79
2023/06/21 00:05:16;;;;;;;14.90;11.48;;;24.00;46.80;;;;;;4965393;28;114747;-79
2023/06/21 00:07:43;;;;;;;11.88;10.70;;;24.00;46.80;;;;;;4966118;28;114240;-79
2023/06/21 00:10:11;;;;;;;12.15;10.90;;;24.10;47.20;;;;;;4966182;28;114225;-79
2023/06/21 00:12:38;;;;;;;13.20;11.80;;;24.10;47.00;;;;;;4979355;28;114963;-79
2023/06/21 00:15:06;;;;;;;12.27;10.98;;;24.20;46.60;;;;;;4962721;28;114692;-79
2023/06/21 00:17:33;;;;;;;12.60;11.40;;;24.30;47.00;;;;;;4985003;28;114213;-79
2023/06/21 00:20:00;;;;;;;11.93;10.73;;;24.30;46.10;;;;;;4986442;28;114357;-79
2023/06/21 00:22:29;;;;;;;12.98;11.68;;;24.20;47.10;;;;;;4983522;28;115093;-80
2023/06/21 00:24:57;;;;;;;11.68;10.50;;;24.20;47.10;;;;;;4985068;28;114845;-80
2023/06/21 00:27:25;;;;;;;11.88;10.77;;;24.10;46.80;;;;;;4969539;28;115432;-79
2023/06/21 00:29:53;;;;;;;11.77;10.57;;;24.10;47.10;;;;;;4966038;28;114310;-79
2023/06/21 00:32:21;;;;;;;11.75;10.65;;;24.20;47.30;;;;;;4947946;28;114944;-80
2023/06/21 00:34:48;;;;;;;11.73;10.63;;;24.20;47.30;;;;;;4963879;28;114625;-80
2023/06/21 00:37:15;;;;;;;12.05;10.90;;;24.30;47.20;;;;;;4964533;28;114426;-79
2023/06/21 00:39:43;;;;;;;12.05;10.85;;;24.30;47.00;;;;;;4964577;28;114241;-80
2023/06/21 00:42:10;;;;;;;11.80;10.65;;;24.30;47.30;;;;;;4970682;28;115280;-80
2023/06/21 00:44:38;;;;;;;11.90;10.70;;;24.40;47.10;;;;;;4964585;28;114587;-80
2023/06/21 00:47:06;;;;;;;12.68;11.15;;;24.50;46.70;;;;;;4980926;28;116232;-80
2023/06/21 00:49:33;;;;;;;13.52;10.90;;;24.50;46.80;;;;;;4964658;28;114510;-79
2023/06/21 00:52:00;;;;;;;11.65;10.55;;;24.60;46.80;;;;;;4963343;28;114983;-79
2023/06/21 00:54:31;;;;;;;11.63;10.63;;;24.60;46.70;;;;;;4973040;28;117569;-79
2023/06/21 00:56:59;;;;;;;11.85;10.65;;;24.60;46.60;;;;;;4985408;28;119899;-78
2023/06/21 00:59:27;;;;;;;12.57;10.40;;;24.60;46.80;;;;;;4984360;28;114282;-78
2023/06/21 01:02:00;;;;;;;11.48;10.38;;;24.60;46.70;;;;;;4970933;28;116149;-79
2023/06/21 01:04:31;;;;;;;12.40;10.95;;;24.70;46.30;;;;;;4947238;28;115883;-79
2023/06/21 01:07:10;;;;;;;11.95;10.77;;;24.70;46.40;;;;;;4964036;28;114554;-80
2023/06/21 01:09:43;;;;;;;11.40;10.30;;;24.70;46.00;;;;;;4965860;28;114319;-79
2023/06/21 01:12:29;;;;;;;11.75;10.55;;;24.70;46.50;;;;;;4980097;28;115260;-80
2023/06/21 01:15:05;;;;;;;11.98;10.70;;;24.80;46.20;;;;;;4964436;28;117968;-79
2023/06/21 01:17:33;;;;;;;12.32;11.02;;;24.70;46.40;;;;;;4963924;28;114535;-80
2023/06/21 01:20:05;;;;;;;12.15;10.90;;;24.70;46.30;;;;;;4965230;28;114339;-80
2023/06/21 01:22:48;;;;;;;12.73;11.27;;;24.70;46.40;;;;;;4959978;28;115285;-79
2023/06/21 01:25:38;;;;;;;12.27;11.07;;;24.70;46.20;;;;;;4962925;28;115487;-79
2023/06/21 01:28:51;;;;;;;13.38;11.98;;;24.70;46.10;;;;;;4963716;28;114278;-79
2023/06/21 01:31:20;;;;;;;11.93;10.93;;;24.70;46.20;;;;;;4964692;28;114489;-79
2023/06/21 01:33:49;;;;;;;12.23;11.02;;;24.60;46.60;;;;;;4962260;28;116939;-79
2023/06/21 01:36:16;;;;;;;12.13;10.95;;;24.60;46.70;;;;;;4979040;28;115321;-78
2023/06/21 01:38:44;;;;;;;12.30;11.02;;;24.60;46.60;;;;;;4963826;28;114170;-80
2023/06/21 01:41:12;;;;;;;12.10;10.90;;;24.50;46.90;;;;;;4963527;28;114609;-79
2023/06/21 01:43:39;;;;;;;12.60;11.27;;;24.50;46.70;;;;;;4963434;28;115304;-80
2023/06/21 01:46:06;;;;;;;12.18;10.98;;;24.50;46.60;;;;;;4962549;28;114827;-79
2023/06/21 01:48:34;;;;;;;11.52;10.43;;;24.50;46.60;;;;;;4947004;28;114272;-79
2023/06/21 01:51:03;;;;;;;11.60;10.50;;;24.40;46.80;;;;;;4964771;28;115114;-80
2023/06/21 01:53:33;;;;;;;11.75;10.65;;;24.50;47.00;;;;;;4962433;28;114890;-79
2023/06/21 01:56:07;;;;;;;11.50;10.40;;;24.40;47.10;;;;;;4978572;28;114641;-80
2023/06/21 01:58:34;;;;;;;12.33;10.90;;;24.40;47.20;;;;;;4963099;28;114393;-79
2023/06/21 02:01:02;;;;;;;11.43;10.40;;;24.40;46.70;;;;;;4964173;28;114234;-79
2023/06/21 02:03:30;;;;;;;11.70;10.60;;;24.40;47.20;;;;;;4962218;28;116121;-79
2023/06/21 02:06:06;;;;;;;11.20;10.10;;;24.40;47.20;;;;;;4961917;28;115744;-79
2023/06/21 02:08:34;;;;;;;10.60;9.60;;;24.40;46.90;;;;;;4962559;28;114339;-80
2023/06/21 02:11:01;;;;;;;13.88;10.77;;;24.50;47.00;;;;;;4963327;28;114318;-80
2023/06/21 02:13:29;;;;;;;13.02;11.68;;;24.40;47.00;;;;;;4962395;28;115384;-79
2023/06/21 02:15:57;;;;;;;12.98;11.07;;;24.40;46.40;;;;;;4946005;28;116812;-79
2023/06/21 02:18:24;;;;;;;12.23;10.40;;;24.40;46.30;;;;;;4979420;28;114703;-79
2023/06/21 02:20:52;;;;;;;11.35;10.20;;;24.30;47.00;;;;;;4979648;28;114252;-80
2023/06/21 02:23:19;;;;;;;11.77;10.68;;;24.30;46.90;;;;;;4978674;28;117106;-81
2023/06/21 02:25:46;;;;;;;11.63;10.38;;;24.30;47.10;;;;;;4962639;28;115291;-81
2023/06/21 02:28:13;;;;;;;11.63;10.48;;;24.30;47.10;;;;;;4962859;28;114634;-80
2023/06/21 02:30:43;;;;;;;12.15;10.82;;;24.30;47.30;;;;;;4946795;28;114541;-81
2023/06/21 02:33:10;;;;;;;12.63;10.88;;;24.30;47.20;;;;;;4961783;28;117121;-80
2023/06/21 02:35:42;;;;;;;12.38;11.07;;;24.40;47.20;;;;;;4963325;28;114638;-80
2023/06/21 02:38:09;;;;;;;12.32;11.02;;;24.50;47.10;;;;;;4980748;28;114618;-80
2023/06/21 02:40:36;;;;;;;11.38;10.27;;;24.50;46.90;;;;;;4968982;28;114368;-80
2023/06/21 02:43:04;;;;;;;12.82;11.63;;;24.50;47.10;;;;;;4979056;28;117593;-81
2023/06/21 02:45:32;;;;;;;11.48;10.38;;;24.50;46.40;;;;;;4964509;28;115102;-80
2023/06/21 02:47:59;;;;;;;10.85;9.85;;;24.40;46.90;;;;;;4965549;28;116724;-80
2023/06/21 02:50:27;;;;;;;11.60;10.60;;;24.40;47.10;;;;;;4982134;28;119397;-81
2023/06/21 02:52:55;;;;;;;11.77;10.60;;;24.40;46.90;;;;;;4982580;28;114945;-80
2023/06/21 02:55:23;;;;;;;12.45;11.15;;;24.50;46.40;;;;;;4982012;28;114647;-80
2023/06/21 02:57:51;;;;;;;13.13;11.60;;;24.30;46.40;;;;;;4983879;28;114440;-80
2023/06/21 03:00:22;;;;;;;11.43;10.32;;;24.30;46.20;;;;;;4999301;28;114660;-80
2023/06/21 03:02:50;;;;;;;12.48;11.15;;;24.20;46.60;;;;;;4983445;28;115010;-80
2023/06/21 03:05:18;;;;;;;11.95;10.75;;;24.10;46.90;;;;;;4983621;28;117149;-79
2023/06/21 03:07:46;;;;;;;11.70;10.60;;;24.00;46.80;;;;;;4986168;28;114669;-80
2023/06/21 03:10:14;;;;;;;11.02;9.93;;;24.00;47.30;;;;;;4986128;28;114534;-80
2023/06/21 03:12:41;;;;;;;12.43;10.68;;;24.10;47.40;;;;;;5001646;28;114805;-80
2023/06/21 03:15:09;;;;;;;11.93;10.73;;;24.10;47.20;;;;;;4985391;28;114847;-80
2023/06/21 03:17:38;;;;;;;11.88;10.57;;;24.30;47.20;;;;;;4985983;28;114391;-80
2023/06/21 03:20:13;;;;;;;11.43;10.27;;;24.50;46.80;;;;;;4987097;28;114451;-80
2023/06/21 03:22:45;;;;;;;12.23;10.90;;;24.70;46.50;;;;;;4964948;28;114969;-80
2023/06/21 03:25:13;;;;;;;12.02;10.93;;;24.80;46.50;;;;;;4965853;28;115346;-79
2023/06/21 03:27:43;;;;;;;12.32;11.10;;;25.00;45.70;;;;;;4965551;28;114443;-79
2023/06/21 03:30:11;;;;;;;12.13;11.02;;;25.20;45.10;;;;;;4965522;28;114382;-80
2023/06/21 03:32:46;;;;;;;12.65;11.48;;;25.30;45.10;;;;;;4964456;28;114674;-80
2023/06/21 03:35:16;;;;;;;12.40;11.20;;;25.50;44.50;;;;;;4965637;28;115835;-79
2023/06/21 03:37:46;;;;;;;11.38;10.25;;;25.60;44.30;;;;;;4965425;28;114437;-80
2023/06/21 03:40:14;;;;;;;11.70;10.60;;;25.80;44.40;;;;;;4966883;28;114316;-80
2023/06/21 03:42:43;;;;;;;12.57;11.27;;;25.80;43.90;;;;;;4961416;28;115318;-80
2023/06/21 03:45:11;;;;;;;12.90;11.60;;;25.90;43.80;;;;;;4984210;28;114728;-80
2023/06/21 03:47:39;;;;;;;13.43;11.43;;;26.10;43.40;;;;;;4984530;28;115109;-80
2023/06/21 03:50:08;;;;;;;12.73;11.48;;;26.10;43.20;;;;;;4984773;28;114581;-79
2023/06/21 03:52:39;;;;;;;12.52;11.32;;;26.20;43.20;;;;;;4984390;28;114799;-79
2023/06/21 03:55:07;;;;;;;11.85;10.63;;;26.20;43.20;;;;;;4967480;28;115006;-80
2023/06/21 03:57:35;;;;;;;12.77;11.48;;;26.20;43.20;;;;;;5001158;28;114462;-79
2023/06/21 04:00:06;;;;;;;10.82;9.85;;;26.30;43.10;;;;;;4984921;28;114267;-80
2023/06/21 04:02:41;;;;;;;12.05;10.85;;;26.30;43.10;;;;;;4985101;28;114914;-80
2023/06/21 04:05:10;;;;;;;12.48;11.18;;;26.20;43.30;;;;;;4984792;28;114672;-79
2023/06/21 04:07:38;;;;;;;11.88;10.20;;;26.30;43.10;;;;;;4985484;28;114468;-79
2023/06/21 04:10:05;;;;;;;12.13;10.50;;;26.30;43.20;;;;;;4985134;28;114247;-79
2023/06/21 04:12:32;;;;;;;12.15;10.95;;;26.30;43.00;;;;;;4984366;28;116480;-79
2023/06/21 04:15:00;;;;;;;13.07;11.10;;;26.30;43.10;;;;;;4985632;28;114794;-79
2023/06/21 04:17:29;;;;;;;16.48;11.35;;;26.20;43.10;;;;;;4974556;28;114391;-80
2023/06/21 04:19:57;;;;;;;12.32;11.10;;;26.20;43.20;;;;;;4966062;28;114462;-80
2023/06/21 04:22:25;;;;;;;12.10;10.73;;;26.00;43.40;;;;;;4991890;28;115530;-81
2023/06/21 04:24:56;;;;;;;12.00;10.80;;;26.00;43.50;;;;;;4977916;28;114609;-81
2023/06/21 04:27:24;;;;;;;10.90;9.90;;;26.10;43.70;;;;;;4966001;28;116571;-80
2023/06/21 04:29:51;;;;;;;12.15;10.55;;;26.10;43.80;;;;;;4983984;28;116461;-81
2023/06/21 04:32:18;;;;;;;12.15;11.05;;;26.20;43.60;;;;;;4984672;28;115090;-81
2023/06/21 04:34:48;;;;;;;12.40;11.18;;;26.20;43.60;;;;;;4984764;28;114775;-80
2023/06/21 04:37:18;;;;;;;12.40;10.80;;;26.10;43.80;;;;;;4972224;28;114697;-80
2023/06/21 04:39:45;;;;;;;11.85;10.60;;;26.00;43.90;;;;;;4987597;28;114383;-81
2023/06/21 04:42:12;;;;;;;12.02;10.80;;;26.00;44.10;;;;;;4984632;28;115022;-81
2023/06/21 04:44:39;;;;;;;11.50;10.23;;;26.10;44.30;;;;;;4984868;28;115111;-80
2023/06/21 04:47:07;;;;;;;11.23;10.02;;;26.20;44.00;;;;;;5000501;28;114528;-80
2023/06/21 04:49:35;;;;;;;15.00;10.48;;;26.20;44.00;;;;;;4985660;28;115688;-80
2023/06/21 04:52:03;;;;;;;11.63;10.43;;;26.30;43.90;;;;;;4983721;28;114234;-80
2023/06/21 04:54:32;;;;;;;12.82;10.43;;;26.30;44.00;;;;;;4961158;28;114929;-78
2023/06/21 04:57:00;;;;;;;14.20;11.63;;;26.30;44.00;;;;;;4964415;28;114266;-79
2023/06/21 04:59:27;;;;;;;12.48;10.30;;;26.40;43.80;;;;;;4964719;28;114335;-79
2023/06/21 05:01:55;;;;;;;11.05;9.77;;;26.60;43.70;;;;;;4964335;28;115078;-79
2023/06/21 05:04:22;;;;;;;11.10;10.00;;;26.70;43.40;;;;;;4979603;28;116626;-80
2023/06/21 05:06:50;;;;;;;10.85;9.75;;;26.80;43.50;;;;;;4964540;28;114628;-79
2023/06/21 05:09:17;;;;;;;12.60;9.95;;;26.90;43.40;;;;;;4966414;28;114227;-80
2023/06/21 05:11:44;;;;;;;10.45;9.35;;;27.00;42.80;;;;;;4965635;28;116194;-79
2023/06/21 05:14:11;;;;;;;10.68;9.57;;;27.10;42.50;;;;;;4964444;28;115034;-80
2023/06/21 05:16:40;;;;;;;10.50;9.40;;;27.10;42.50;;;;;;4973008;28;115584;-80
2023/06/21 05:19:11;;;;;;;11.15;9.23;;;27.10;42.30;;;;;;4967727;28;117189;-80
2023/06/21 05:21:40;;;;;;;10.65;9.55;;;27.00;42.20;;;;;;4965974;28;116193;-80
2023/06/21 05:24:07;;;;;;;10.10;9.10;;;27.00;42.60;;;;;;4966739;28;115166;-80
2023/06/21 05:26:35;;;;;;;10.70;9.43;;;27.10;42.10;;;;;;4964235;28;114695;-80
2023/06/21 05:29:02;;;;;;;9.85;8.82;;;27.10;42.00;;;;;;4964582;28;114144;-80
2023/06/21 05:31:29;;;;;;;10.77;9.10;;;27.10;42.20;;;;;;4964384;28;118040;-81
2023/06/21 05:33:56;;;;;;;9.80;8.90;;;27.20;42.20;;;;;;4964940;28;115030;-79
2023/06/21 05:36:24;;;;;;;10.88;9.75;;;27.20;42.30;;;;;;4966578;28;114327;-80
2023/06/21 05:38:51;;;;;;;14.43;9.57;;;27.30;41.80;;;;;;4965190;28;114358;-79
2023/06/21 05:41:19;;;;;;;10.57;9.43;;;27.30;41.90;;;;;;4960142;28;115201;-80
2023/06/21 05:43:48;;;;;;;10.38;9.23;;;27.30;42.00;;;;;;4963998;28;119987;-80
2023/06/21 05:46:15;;;;;;;10.05;9.05;;;27.40;41.60;;;;;;4966152;28;114277;-80
2023/06/21 05:48:43;;;;;;;9.88;8.98;;;27.30;41.70;;;;;;4964710;28;114583;-81
2023/06/21 05:51:10;;;;;;;10.32;9.00;;;27.20;41.80;;;;;;4964281;28;115464;-81
2023/06/21 05:53:38;;;;;;;10.55;9.23;;;26.90;42.20;;;;;;4979291;28;115280;-80
2023/06/21 05:56:08;;;;;;;13.20;9.52;;;26.70;42.70;;;;;;4962902;28;114578;-80
2023/06/21 05:58:38;;;;;;;9.90;9.00;;;26.70;43.00;;;;;;4964530;28;114238;-79
2023/06/21 06:01:05;;;;;;;11.32;9.23;;;26.70;42.80;;;;;;4978850;28;115131;-79
2023/06/21 06:03:55;;;;;;;17.88;14.57;;;26.90;42.70;;;;;;4975700;28;114798;-81
2023/06/21 06:06:26;;;;;;;10.25;9.23;;;27.00;42.50;;;;;;4979857;28;114280;-80
2023/06/21 06:08:53;;;;;;;11.13;9.43;;;27.30;42.20;;;;;;4978933;28;114395;-80
2023/06/21 06:11:21;;;;;;;11.10;9.77;;;27.30;42.10;;;;;;4981261;28;115017;-81
2023/06/21 06:13:48;;;;;;;11.13;9.27;;;27.40;41.70;;;;;;4981938;28;117323;-80
2023/06/21 06:16:18;;;;;;;10.95;9.75;;;27.50;41.70;;;;;;4994734;28;114518;-82
2023/06/21 06:18:45;;;;;;;9.68;8.77;;;27.70;41.70;;;;;;4961782;28;114554;-80
2023/06/21 06:21:14;;;;;;;12.90;10.00;;;27.90;41.30;;;;;;4962292;28;115237;-80
2023/06/21 06:23:41;;;;;;;10.23;9.18;;;28.00;41.00;;;;;;4961298;28;115787;-79
2023/06/21 06:26:09;;;;;;;12.10;9.05;;;27.90;41.40;;;;;;4962836;28;114632;-80
2023/06/21 06:28:37;;;;;;;10.43;9.35;;;27.90;41.20;;;;;;4963968;28;114614;-81
2023/06/21 06:31:04;;;;;;;9.80;8.80;;;28.00;41.30;;;;;;4962439;28;115081;-81
2023/06/21 06:33:31;;;;;;;12.25;10.95;;;28.30;40.80;;;;;;4979620;28;115288;-80
2023/06/21 06:36:14;;;;;;;10.80;9.77;;;28.30;40.70;;;;;;4974064;28;114495;-79
2023/06/21 06:38:50;;;;;;;9.80;8.77;;;28.50;40.50;;;;;;4988217;28;114496;-80
2023/06/21 06:41:27;;;;;;;9.82;8.82;;;28.80;40.20;;;;;;4969001;28;117435;-80
2023/06/21 06:44:05;;;;;;;10.55;8.45;;;28.90;40.00;;;;;;4967478;28;115569;-80
2023/06/21 06:46:33;;;;;;;9.45;8.55;;;29.10;39.50;;;;;;4968990;28;114302;-81
2023/06/21 06:49:04;;;;;;;9.90;8.90;;;29.20;39.70;;;;;;4948340;28;116571;-79
2023/06/21 06:51:32;;;;;;;11.45;8.30;;;29.30;39.20;;;;;;4988432;28;115171;-80
2023/06/21 06:53:59;;;;;;;11.27;8.52;;;29.50;39.00;;;;;;4990212;28;114757;-80
2023/06/21 06:56:30;;;;;;;10.10;9.02;;;29.50;39.00;;;;;;4995099;28;114734;-79
2023/06/21 06:58:57;;;;;;;12.63;9.15;;;29.50;38.80;;;;;;4976118;28;114695;-80
2023/06/21 07:01:27;;;;;;;9.73;8.40;;;29.50;38.80;;;;;;4959977;28;117933;-81
2023/06/21 07:03:56;;;;;;;9.57;8.32;;;29.30;39.50;;;;;;4972738;28;116083;-79
2023/06/21 07:06:24;;;;;;;10.02;9.02;;;29.30;39.60;;;;;;4940837;28;114489;-79
2023/06/21 07:08:52;;;;;;;10.80;9.60;;;29.10;39.90;;;;;;4982683;28;114356;-80
2023/06/21 07:11:20;;;;;;;10.27;9.10;;;29.10;39.70;;;;;;4975436;28;115606;-79
2023/06/21 07:13:48;;;;;;;10.05;9.05;;;29.00;39.70;;;;;;4962343;28;115505;-82
2023/06/21 07:16:15;;;;;;;9.38;8.32;;;28.90;39.80;;;;;;4968287;28;114387;-80
2023/06/21 07:18:43;;;;;;;10.25;9.15;;;28.80;40.10;;;;;;4966076;28;114574;-79
2023/06/21 07:21:10;;;;;;;13.27;9.05;;;28.70;39.90;;;;;;4965534;28;115307;-80
2023/06/21 07:23:38;;;;;;;9.65;8.73;;;28.80;40.40;;;;;;4966601;28;114602;-80
2023/06/21 07:26:05;;;;;;;12.00;9.00;;;28.80;40.30;;;;;;4964533;28;114357;-80
2023/06/21 07:28:33;;;;;;;11.32;9.07;;;28.80;40.40;;;;;;4949168;28;114542;-80
2023/06/21 07:31:03;;;;;;;10.48;8.60;;;28.90;40.20;;;;;;4964569;28;115029;-81
2023/06/21 07:33:31;;;;;;;9.65;8.75;;;28.80;40.60;;;;;;4981889;28;115065;-80
2023/06/21 07:36:01;;;;;;;9.85;8.93;;;28.70;40.20;;;;;;4980940;28;114435;-80
2023/06/21 07:38:29;;;;;;;10.57;9.23;;;28.40;40.60;;;;;;4965057;28;114841;-80
2023/06/21 07:40:57;;;;;;;11.52;9.05;;;28.20;41.30;;;;;;4965534;28;115490;-80
2023/06/21 07:43:27;;;;;;;10.68;9.55;;;28.20;41.20;;;;;;4973452;27;115173;-80
2023/06/21 07:45:55;;;;;;;11.05;9.55;;;28.20;41.50;;;;;;4964183;28;114343;-81
2023/06/21 07:48:43;;;;;;;10.05;8.95;;;28.10;41.80;;;;;;4968579;28;118593;-80
2023/06/21 07:51:12;;;;;;;10.68;9.40;;;28.10;41.80;;;;;;4963681;28;114911;-80
2023/06/21 07:53:40;;;;;;;10.85;9.07;;;28.10;42.20;;;;;;4963456;28;117279;-80
2023/06/21 07:56:07;;;;;;;10.15;9.25;;;28.20;42.00;;;;;;4975496;28;114529;-80
2023/06/21 07:58:34;;;;;;;12.73;10.05;;;28.20;42.10;;;;;;4967595;27;114838;-80
2023/06/21 08:01:01;;;;;;;10.13;8.55;;;28.30;41.60;;;;;;4963474;28;115010;-80
2023/06/21 08:03:29;;;;;;;12.27;9.85;;;28.30;41.60;;;;;;4979533;28;116745;-79
2023/06/21 08:05:57;;;;;;;11.45;8.80;;;28.30;41.70;;;;;;4965050;28;114362;-79
2023/06/21 08:08:24;;;;;;;10.73;9.63;;;28.50;41.30;;;;;;4965124;28;114645;-79
2023/06/21 08:10:52;;;;;;;11.77;9.27;;;28.50;41.50;;;;;;4964808;28;115533;-79
2023/06/21 08:13:22;;;;;;;10.63;9.52;;;28.70;41.30;;;;;;4948398;28;114673;-79
2023/06/21 08:15:51;;;;;;;10.73;8.93;;;28.80;41.10;;;;;;4997210;28;114717;-79
2023/06/21 08:18:18;;;;;;;10.82;8.63;;;28.90;40.90;;;;;;4984263;28;114466;-79
2023/06/21 08:20:47;;;;;;;10.35;9.27;;;29.10;40.90;;;;;;4998816;28;116097;-79
2023/06/21 08:23:16;;;;;;;10.30;9.02;;;29.20;40.50;;;;;;4945572;28;116242;-81
2023/06/21 08:25:45;;;;;;;10.13;9.13;;;29.20;40.30;;;;;;4969150;28;116061;-80
2023/06/21 08:28:15;;;;;;;10.50;9.20;;;29.20;40.40;;;;;;4960759;28;114583;-81
2023/06/21 08:30:45;;;;;;;13.13;9.52;;;29.10;40.70;;;;;;4963969;28;114948;-81
2023/06/21 08:33:12;;;;;;;10.75;9.63;;;29.30;40.70;;;;;;4980315;28;116274;-81
2023/06/21 08:35:42;;;;;;;11.80;9.52;;;29.40;40.50;;;;;;4963176;28;114241;-81
2023/06/21 08:38:09;;;;;;;14.27;11.30;;;29.40;40.40;;;;;;4982092;28;118601;-80
2023/06/21 08:41:04;;;;;;;13.77;11.33;;;29.30;40.50;;;;;;4969639;28;114927;-81
2023/06/21 08:43:32;;;;;;;11.30;9.90;;;29.50;40.80;;;;;;4963737;28;114669;-80
2023/06/21 08:46:03;;;;;;;12.45;10.00;;;29.60;39.80;;;;;;4980701;28;114572;-80
2023/06/21 08:48:35;;;;;;;12.23;10.13;;;29.60;39.90;;;;;;4975272;28;115478;-79
2023/06/21 08:51:06;;;;;;;11.23;10.05;;;29.40;40.30;;;;;;4964931;28;114882;-80
2023/06/21 08:53:46;;;;;;;13.77;10.07;;;29.20;40.80;;;;;;4967348;28;115078;-80
2023/06/21 08:56:20;;;;;;;12.25;10.15;;;29.10;40.90;;;;;;4968628;28;114746;-80
2023/06/21 08:58:54;;;;;;;10.68;9.52;;;29.10;41.20;;;;;;4964397;28;114210;-80
2023/06/21 09:01:22;;;;;;;10.68;9.57;;;29.10;41.30;;;;;;4978471;28;116346;-80
2023/06/21 09:03:58;;;;;;;10.82;9.77;;;28.90;41.60;;;;;;4963893;28;115297;-80
2023/06/21 09:06:26;;;;;;;12.07;10.57;;;28.90;41.60;;;;;;4980388;28;114449;-80
2023/06/21 09:09:16;;;;;;;10.88;9.77;;;28.80;41.70;;;;;;4977769;28;114329;-80
2023/06/21 09:11:43;;;;;;;11.63;10.43;;;28.80;41.70;;;;;;4978002;28;115284;-80
2023/06/21 09:14:10;;;;;;;11.70;10.30;;;28.70;42.00;;;;;;4979487;28;114572;-80
2023/06/21 09:16:39;;;;;;;12.18;10.15;;;28.70;42.30;;;;;;4999731;28;114666;-80
2023/06/21 09:19:09;;;;;;;12.05;10.30;;;28.70;42.60;;;;;;4984137;28;114260;-80
2023/06/21 09:21:40;;;;;;;12.93;10.60;;;28.60;42.70;;;;;;4959877;28;118280;-80
2023/06/21 09:24:10;;;;;;;15.18;10.80;;;28.60;42.80;;;;;;4964141;28;114918;-80
2023/06/21 09:26:40;;;;;;;11.48;10.48;;;28.60;43.10;;;;;;4980359;28;114576;-80
2023/06/21 09:29:07;;;;;;;14.35;10.82;;;28.70;43.20;;;;;;4980404;28;114453;-80
2023/06/21 09:31:37;;;;;;;16.63;10.70;;;28.60;43.70;;;;;;4963905;28;115961;-79
2023/06/21 09:34:04;;;;;;;21.42;10.75;;;28.60;43.50;;;;;;4979131;28;114914;-80
2023/06/21 09:36:31;;;;;;;11.95;10.70;;;28.50;43.70;;;;;;4964345;28;114347;-80
2023/06/21 09:39:12;;;;;;;15.02;11.35;;;28.50;44.00;;;;;;4980336;28;114492;-82
2023/06/21 09:41:39;;;;;;;14.63;11.05;;;28.60;44.00;;;;;;4978912;28;115313;-80
2023/06/21 09:44:06;;;;;;;35.25;11.55;;;28.50;44.10;;;;;;4962583;28;116227;-80
2023/06/21 09:46:34;;;;;;;16.63;11.10;;;28.50;44.90;;;;;;4965470;28;114440;-80
2023/06/21 09:49:09;;;;;;;23.85;11.65;;;28.50;44.40;;;;;;4979104;28;114414;-79
2023/06/21 09:51:42;;;;;;;14.30;11.75;;;28.60;44.80;;;;;;4945404;28;117903;-80
2023/06/21 09:54:12;;;;;;;16.33;12.48;;;28.50;44.80;;;;;;4945809;28;116974;-80
2023/06/21 09:56:39;;;;;;;19.13;13.23;;;28.50;44.80;;;;;;4963016;28;114475;-78
2023/06/21 09:59:20;;;;;;;15.77;13.20;;;28.50;45.00;;;;;;4979696;28;114447;-80
2023/06/21 10:01:50;;;;;;;13.35;11.93;;;28.50;45.10;;;;;;4962874;28;115604;-80
2023/06/21 10:04:17;;;;;;;13.68;12.27;;;28.30;45.60;;;;;;4963259;28;114728;-80
2023/06/21 10:06:50;;;;;;;13.45;12.05;;;28.30;45.70;;;;;;4963257;28;114198;-80
2023/06/21 10:09:18;;;;;;;14.15;12.63;;;28.30;46.30;;;;;;4963211;28;114550;-81
2023/06/21 10:11:45;;;;;;;14.52;12.88;;;28.30;47.00;;;;;;4978137;28;114919;-80
2023/06/21 10:14:23;;;;;;;15.70;12.52;;;28.30;47.40;;;;;;4965973;28;115948;-80
2023/06/21 10:16:52;;;;;;;15.05;13.00;;;28.20;47.70;;;;;;4983284;28;114222;-80
2023/06/21 10:19:24;;;;;;;19.58;13.20;;;28.10;48.00;;;;;;4966546;28;114436;-80
2023/06/21 10:22:11;;;;;;;20.80;14.80;;;28.00;49.00;;;;;;4966929;28;115063;-81
2023/06/21 10:24:49;;;;;;;19.42;17.08;;;27.80;49.90;;;;;;4965962;28;114840;-80
2023/06/21 10:27:17;;;;;;;25.42;16.75;;;27.40;51.70;;;;;;4982273;28;114326;-80
2023/06/21 10:29:48;;;;;;;21.23;16.73;;;27.00;52.60;;;;;;4983081;28;117248;-80
2023/06/21 10:32:16;;;;;;;19.73;16.52;;;26.70;53.90;;;;;;4982079;28;115292;-80
2023/06/21 10:35:01;;;;;;;19.35;15.52;;;26.40;53.60;;;;;;4966117;28;114950;-80
2023/06/21 10:37:31;;;;;;;27.90;24.38;;;26.20;54.50;;;;;;4983314;28;116183;-78
2023/06/21 10:40:05;;;;;;;18.90;16.77;;;26.00;57.10;;;;;;4966264;28;114295;-80
2023/06/21 10:42:38;;;;;;;19.83;16.70;;;25.90;54.00;;;;;;4966721;28;114855;-79
2023/06/21 10:45:05;;;;;;;16.00;14.40;;;25.80;56.00;;;;;;4967507;28;115051;-80
2023/06/21 10:47:42;;;;;;;18.00;16.00;;;25.80;54.20;;;;;;4949888;28;114408;-80
2023/06/21 10:50:14;;;;;;;19.83;17.73;;;25.70;55.40;;;;;;4964838;28;114671;-80
2023/06/21 10:53:02;;;;;;;20.60;18.33;;;25.60;57.50;;;;;;4961364;28;115318;-79
2023/06/21 10:55:30;;;;;;;21.48;18.83;;;25.70;58.30;;;;;;4947781;28;115905;-79
2023/06/21 10:58:05;;;;;;;22.67;20.08;;;25.80;58.40;;;;;;4966057;28;114414;-79
2023/06/21 11:00:44;;;;;;;22.20;19.85;;;25.80;59.10;;;;;;4966866;28;114414;-79
2023/06/21 11:03:29;;;;;;;21.83;19.50;;;25.80;58.70;;;;;;4965047;28;115176;-79
2023/06/21 11:06:34;;;;;;;21.15;18.95;;;25.80;58.80;;;;;;4946346;28;117984;-78
2023/06/21 11:09:12;;;;;;;21.00;18.65;;;25.70;58.50;;;;;;4964055;28;114853;-79
2023/06/21 11:11:52;;;;;;;22.00;16.30;;;25.60;60.40;;;;;;4966505;28;114230;-79
2023/06/21 11:14:39;;;;;;;19.83;16.00;;;25.40;60.60;;;;;;4948502;28;116951;-80
2023/06/21 11:17:16;;;;;;;19.27;16.08;;;25.10;61.30;;;;;;4965012;28;114705;-79
2023/06/21 11:20:14;;;;;;;15.88;14.25;;;24.90;62.10;;;;;;4961991;28;117106;-79
2023/06/21 11:22:56;;;;;;;16.88;14.52;;;24.70;61.70;;;;;;4949046;28;114326;-79
2023/06/21 11:25:59;;;;;;;16.17;14.48;;;24.50;61.70;;;;;;4964979;28;118465;-81
2023/06/21 11:29:11;;;;;;;16.65;14.68;;;24.50;62.00;;;;;;4971185;28;114897;-81
2023/06/21 11:32:11;;;;;;;17.23;15.43;;;24.50;62.20;;;;;;4937896;28;114353;-80
2023/06/21 11:34:53;;;;;;;17.73;15.50;;;24.60;62.50;;;;;;4958526;28;115067;-80
2023/06/21 11:37:41;;;;;;;19.98;16.27;;;24.80;62.20;;;;;;4971100;28;115140;-79
2023/06/21 11:40:10;;;;;;;18.67;16.60;;;24.80;61.80;;;;;;4987863;28;117081;-80
2023/06/21 11:42:45;;;;;;;21.05;17.20;;;24.90;61.50;;;;;;4969425;28;114585;-78
2023/06/21 11:45:16;;;;;;;21.25;16.85;;;25.20;61.60;;;;;;4984506;28;114437;-80
2023/06/21 11:48:03;;;;;;;19.92;17.63;;;25.30;60.70;;;;;;4965107;28;115168;-78
2023/06/21 11:50:34;;;;;;;19.88;17.77;;;25.50;61.00;;;;;;4965312;28;116344;-80
2023/06/21 11:53:20;;;;;;;20.58;18.38;;;25.70;60.30;;;;;;4981587;28;114281;-79
2023/06/21 11:55:52;;;;;;;19.02;17.23;;;26.00;59.10;;;;;;4980851;28;114438;-78
2023/06/21 11:58:19;;;;;;;18.10;16.20;;;26.00;58.30;;;;;;4965736;28;115538;-80
2023/06/21 12:00:47;;;;;;;18.95;17.02;;;26.10;57.80;;;;;;4964429;28;116161;-78
2023/06/21 12:03:14;;;;;;;18.60;16.80;;;26.10;57.10;;;;;;4965787;28;114089;-78
2023/06/21 12:05:57;;;;;;;17.58;15.90;;;26.10;57.10;;;;;;4966705;28;114570;-79
2023/06/21 12:08:30;;;;;;;17.42;15.88;;;26.10;57.10;;;;;;4963597;28;117979;-80
2023/06/21 12:11:08;;;;;;;19.02;17.13;;;26.10;57.30;;;;;;4979541;28;114705;-79
2023/06/21 12:13:36;;;;;;;17.98;16.17;;;26.30;57.40;;;;;;4980182;28;114650;-81
2023/06/21 12:16:05;;;;;;;17.25;15.55;;;26.30;57.20;;;;;;4985119;28;114629;-80
2023/06/21 12:18:34;;;;;;;17.20;15.50;;;26.50;57.00;;;;;;5002076;28;115405;-80
2023/06/21 12:21:06;;;;;;;15.30;13.80;;;26.60;56.10;;;;;;4989286;28;115826;-81
2023/06/21 12:23:35;;;;;;;14.35;11.80;;;26.60;55.70;;;;;;4988812;28;114666;-81
2023/06/21 12:26:03;;;;;;;13.25;11.88;;;26.80;54.60;;;;;;5003040;28;114323;-81
2023/06/21 12:28:32;;;;;;;11.82;10.13;;;26.90;54.30;;;;;;4995624;28;115393;-80
2023/06/21 12:31:02;;;;;;;10.40;9.30;;;27.10;53.30;;;;;;4991813;28;115748;-80
2023/06/21 12:33:31;;;;;;;11.02;8.38;;;27.30;52.20;;;;;;5003148;28;114531;-80
2023/06/21 12:36:13;;;;;;;10.52;9.10;;;27.30;51.10;;;;;;5005497;28;114578;-80
2023/06/21 12:38:54;;;;;;;13.27;9.75;;;27.30;51.40;;;;;;5002478;28;114986;-80